createdAt,value
2019-01-14T00:02:34.694Z,12.43
2019-01-14T00:07:56.392Z,19.57
2019-01-14T00:10:24.820Z,20.67
2019-01-14T00:12:53.273Z,18.50
2019-01-14T00:15:21.940Z,21.07
2019-01-14T00:17:50.408Z,17.83
2019-01-14T00:20:18.841Z,18.67
2019-01-14T00:22:47.295Z,24.90
2019-01-14T00:25:15.721Z,23.20
2019-01-14T00:27:44.135Z,28.93
2019-01-14T00:30:15.467Z,24.97
2019-01-14T00:32:43.936Z,23.37
2019-01-14T00:35:12.722Z,28.03
2019-01-14T00:37:41.173Z,22.43
2019-01-14T00:40:12.882Z,29.30
2019-01-14T00:42:42.130Z,27.13
2019-01-14T00:45:11.598Z,22.77
2019-01-14T00:47:40.005Z,26.20
2019-01-14T00:50:11.374Z,24.10
2019-01-14T00:52:39.965Z,21.53
2019-01-14T00:55:09.755Z,21.63
2019-01-14T00:57:38.219Z,28.17
2019-01-14T01:00:15.443Z,25.37
2019-01-14T01:02:43.968Z,25.87
2019-01-14T01:05:12.959Z,22.73
2019-01-14T01:07:41.410Z,21.87
2019-01-14T01:10:13.533Z,20.70
2019-01-14T01:12:41.952Z,25.20
2019-01-14T01:15:13.626Z,22.23
2019-01-14T01:17:42.249Z,25.67
2019-01-14T01:20:13.989Z,27.27
2019-01-14T01:22:42.387Z,22.57
2019-01-14T01:25:11.870Z,20.07
2019-01-14T01:27:40.284Z,25.23
2019-01-14T01:30:14.772Z,22.00
2019-01-14T01:32:43.189Z,28.03
2019-01-14T01:35:13.230Z,28.27
2019-01-14T01:37:42.111Z,29.13
2019-01-14T01:40:13.622Z,23.63
2019-01-14T01:42:42.024Z,24.90
2019-01-14T01:45:11.433Z,28.73
2019-01-14T01:47:39.858Z,23.97
2019-01-14T01:50:11.334Z,30.40
2019-01-14T01:52:39.840Z,23.80
2019-01-14T01:55:09.789Z,25.80
2019-01-14T01:57:38.570Z,19.67
2019-01-14T02:00:10.433Z,25.47
2019-01-14T02:02:38.854Z,22.87
2019-01-14T02:05:10.008Z,20.17
2019-01-14T02:07:38.433Z,23.93
2019-01-14T02:10:12.962Z,30.27
2019-01-14T02:12:41.383Z,28.13
2019-01-14T02:15:12.456Z,22.90
2019-01-14T02:17:42.085Z,31.13
2019-01-14T02:20:13.488Z,31.67
2019-01-14T02:22:41.974Z,24.33
2019-01-14T02:25:11.536Z,22.47
2019-01-14T02:27:39.943Z,32.13
2019-01-14T02:30:14.144Z,35.00
2019-01-14T02:32:42.571Z,42.10
2019-01-14T02:35:11.150Z,23.00
2019-01-14T02:37:39.571Z,35.63
2019-01-14T02:40:19.292Z,24.83
2019-01-14T02:42:47.797Z,20.33
2019-01-14T02:45:17.269Z,24.13
2019-01-14T02:47:45.904Z,27.13
2019-01-14T02:50:15.645Z,25.10
2019-01-14T02:52:44.057Z,29.17
2019-01-14T02:55:13.005Z,25.20
2019-01-14T02:57:42.224Z,24.33
2019-01-14T03:00:13.902Z,36.43
2019-01-14T03:02:42.313Z,30.50
2019-01-14T03:05:11.272Z,22.60
2019-01-14T03:07:39.671Z,22.87
2019-01-14T03:10:10.631Z,28.37
2019-01-14T03:12:39.082Z,33.83
2019-01-14T03:15:10.733Z,25.30
2019-01-14T03:17:39.332Z,27.00
2019-01-14T03:20:10.893Z,32.67
2019-01-14T03:22:39.319Z,29.27
2019-01-14T03:25:09.209Z,26.70
2019-01-14T03:27:37.591Z,27.40
2019-01-14T03:30:09.678Z,30.23
2019-01-14T03:32:38.208Z,27.87
2019-01-14T03:35:08.248Z,34.30
2019-01-14T03:37:36.678Z,31.33
2019-01-14T03:40:08.387Z,33.87
2019-01-14T03:42:36.934Z,29.93
2019-01-14T03:45:06.696Z,28.33
2019-01-14T03:47:35.129Z,26.67
2019-01-14T03:50:05.135Z,44.77
2019-01-14T03:52:33.904Z,28.87
2019-01-14T03:55:02.655Z,36.37
2019-01-14T03:57:31.433Z,27.63
2019-01-14T03:59:59.856Z,34.93
2019-01-14T04:02:28.265Z,26.70
2019-01-14T04:04:56.692Z,36.27
2019-01-14T04:07:25.131Z,39.03
2019-01-14T04:09:53.544Z,25.53
2019-01-14T04:12:21.973Z,31.63
2019-01-14T04:14:50.408Z,27.13
2019-01-14T04:17:18.823Z,38.23
2019-01-14T04:19:47.327Z,42.57
2019-01-14T04:22:15.738Z,31.07
2019-01-14T04:24:44.158Z,31.60
2019-01-14T04:27:12.615Z,33.37
2019-01-14T04:29:41.043Z,31.40
2019-01-14T04:32:09.459Z,38.27
2019-01-14T04:34:37.925Z,37.53
2019-01-14T04:37:06.337Z,26.83
2019-01-14T04:39:34.808Z,32.87
2019-01-14T04:42:03.257Z,27.00
2019-01-14T04:44:32.087Z,32.30
2019-01-14T04:47:00.471Z,23.97
2019-01-14T04:49:28.932Z,30.80
2019-01-14T04:51:57.469Z,32.60
2019-01-14T04:54:26.026Z,31.23
2019-01-14T04:56:54.471Z,28.67
2019-01-14T04:59:22.923Z,27.37
2019-01-14T05:01:51.320Z,23.03
2019-01-14T05:04:19.745Z,27.03
2019-01-14T05:06:48.186Z,31.83
2019-01-14T05:09:16.587Z,25.40
2019-01-14T05:11:44.997Z,30.10
2019-01-14T05:14:13.562Z,32.80
2019-01-14T05:16:41.997Z,25.40
2019-01-14T05:19:10.514Z,25.07
2019-01-14T05:21:38.984Z,37.37
2019-01-14T05:24:07.402Z,28.07
2019-01-14T05:26:35.866Z,35.53
2019-01-14T05:29:04.336Z,24.83
2019-01-14T05:31:33.085Z,25.37
2019-01-14T05:34:01.509Z,25.77
2019-01-14T05:36:29.920Z,22.60
2019-01-14T05:38:58.381Z,22.83
2019-01-14T05:41:26.793Z,27.27
2019-01-14T05:43:55.197Z,13.87
2019-01-14T05:46:23.652Z,24.33
2019-01-14T05:48:52.320Z,28.13
2019-01-14T05:51:20.728Z,15.70
2019-01-14T05:53:50.798Z,20.23
2019-01-14T05:56:19.561Z,28.10
2019-01-14T05:58:47.987Z,24.83
2019-01-14T06:01:16.425Z,22.97
2019-01-14T06:03:44.846Z,20.53
2019-01-14T06:06:13.264Z,18.87
2019-01-14T06:08:41.715Z,19.10
2019-01-14T06:11:10.225Z,25.37
2019-01-14T06:13:38.650Z,23.00
2019-01-14T06:16:07.148Z,22.37
2019-01-14T06:18:35.702Z,18.07
2019-01-14T06:21:04.128Z,23.73
2019-01-14T06:23:32.578Z,18.47
2019-01-14T06:26:01.008Z,25.37
2019-01-14T06:28:29.418Z,20.83
2019-01-14T06:30:57.850Z,17.57
2019-01-14T06:33:26.291Z,15.53
2019-01-14T06:35:54.721Z,25.17
2019-01-14T06:38:23.148Z,15.77
2019-01-14T06:40:51.578Z,21.83
2019-01-14T06:43:20.052Z,23.73
2019-01-14T06:45:48.460Z,15.77
2019-01-14T06:48:17.742Z,24.30
2019-01-14T06:50:46.144Z,20.03
2019-01-14T06:53:14.568Z,18.90
2019-01-14T06:55:42.983Z,20.30
2019-01-14T06:58:11.505Z,17.67
2019-01-14T07:00:39.992Z,26.70
2019-01-14T07:03:08.405Z,22.00
2019-01-14T07:05:36.914Z,15.63
2019-01-14T07:08:05.335Z,17.23
2019-01-14T07:10:33.868Z,16.70
2019-01-14T07:13:02.338Z,17.20
2019-01-14T07:15:30.905Z,17.53
2019-01-14T07:17:59.476Z,19.17
2019-01-14T07:20:27.910Z,13.87
2019-01-14T07:22:56.313Z,21.70
2019-01-14T07:25:24.839Z,18.23
2019-01-14T07:27:53.250Z,18.50
2019-01-14T07:30:23.248Z,12.13
2019-01-14T07:32:51.673Z,21.07
2019-01-14T07:35:20.210Z,19.27
2019-01-14T07:37:48.968Z,29.53
2019-01-14T07:40:19.359Z,16.13
2019-01-14T07:42:47.906Z,15.03
2019-01-14T07:45:18.522Z,26.00
2019-01-14T07:47:46.894Z,14.30
2019-01-14T07:50:17.440Z,17.73
2019-01-14T07:52:46.028Z,12.97
2019-01-14T07:55:14.514Z,16.90
2019-01-14T07:57:42.969Z,19.60
2019-01-14T08:00:23.078Z,14.70
2019-01-14T08:02:53.033Z,21.93
2019-01-14T08:05:21.556Z,12.60
2019-01-14T08:07:50.218Z,19.17
2019-01-14T08:10:18.618Z,12.73
2019-01-14T08:12:47.506Z,12.50
2019-01-14T08:15:18.444Z,13.97
2019-01-14T08:17:47.814Z,13.67
2019-01-14T08:20:16.381Z,11.27
2019-01-14T08:22:53.965Z,9.80
2019-01-14T08:25:24.138Z,13.13
2019-01-14T08:27:52.683Z,16.60
2019-01-14T08:30:23.753Z,6.60
2019-01-14T08:32:52.550Z,12.57
2019-01-14T08:35:21.551Z,13.13
2019-01-14T08:37:50.199Z,13.60
2019-01-14T08:40:19.451Z,13.47
2019-01-14T08:42:47.883Z,10.43
2019-01-14T08:45:16.480Z,18.93
2019-01-14T08:47:45.181Z,14.80
2019-01-14T08:50:16.409Z,17.03
2019-01-14T08:52:44.920Z,13.80
2019-01-14T08:55:13.969Z,12.80
2019-01-14T08:57:42.565Z,14.93
2019-01-14T09:00:19.399Z,12.30
2019-01-14T09:02:47.882Z,13.03
2019-01-14T09:05:17.100Z,17.37
2019-01-14T09:07:45.669Z,10.77
2019-01-14T09:10:18.600Z,18.87
2019-01-14T09:12:47.092Z,12.63
2019-01-14T09:15:17.964Z,10.60
2019-01-14T09:17:47.154Z,9.03
2019-01-14T09:20:18.146Z,17.83
2019-01-14T09:22:46.905Z,15.67
2019-01-14T09:25:15.842Z,17.37
2019-01-14T09:27:44.384Z,18.03
2019-01-14T09:30:18.659Z,18.83
2019-01-14T09:32:47.933Z,17.60
2019-01-14T09:35:16.339Z,15.57
2019-01-14T09:37:44.894Z,19.00
2019-01-14T09:40:16.242Z,18.07
2019-01-14T09:42:44.726Z,13.33
2019-01-14T09:45:14.375Z,18.20
2019-01-14T09:47:43.269Z,20.37
2019-01-14T09:50:14.645Z,18.93
2019-01-14T09:52:43.301Z,13.57
2019-01-14T09:55:14.795Z,17.67
2019-01-14T09:57:43.208Z,20.00
2019-01-14T10:00:11.817Z,14.60
2019-01-14T10:02:40.883Z,13.27
2019-01-14T10:05:12.336Z,21.97
2019-01-14T10:07:41.360Z,16.37
2019-01-14T10:10:12.822Z,14.40
2019-01-14T10:12:41.371Z,14.73
2019-01-14T10:15:12.815Z,13.27
2019-01-14T10:17:41.652Z,11.27
2019-01-14T10:20:12.274Z,10.00
2019-01-14T10:22:40.761Z,15.73
2019-01-14T10:25:11.345Z,15.60
2019-01-14T10:27:40.372Z,12.77
2019-01-14T10:30:11.933Z,12.47
2019-01-14T10:32:40.349Z,14.67
2019-01-14T10:35:09.635Z,12.70
2019-01-14T10:37:38.278Z,17.57
2019-01-14T10:40:09.829Z,16.83
2019-01-14T10:42:38.261Z,15.33
2019-01-14T10:45:21.405Z,10.43
2019-01-14T10:47:50.132Z,15.60
2019-01-14T10:50:19.463Z,13.23
2019-01-14T10:52:47.944Z,16.60
2019-01-14T10:55:16.524Z,19.10
2019-01-14T10:57:45.252Z,12.90
2019-01-14T11:00:24.888Z,14.23
2019-01-14T11:02:53.457Z,16.03
2019-01-14T11:05:28.224Z,16.40
2019-01-14T11:07:56.649Z,21.47
2019-01-14T11:10:25.638Z,15.20
2019-01-14T11:12:54.077Z,15.93
2019-01-14T11:15:24.358Z,13.57
2019-01-14T11:17:52.793Z,18.73
2019-01-14T11:20:24.160Z,16.63
2019-01-14T11:22:52.676Z,15.60
2019-01-14T11:25:21.589Z,13.50
2019-01-14T11:27:50.104Z,8.90
2019-01-14T11:30:24.216Z,16.70
2019-01-14T11:32:52.644Z,16.40
2019-01-14T11:35:21.139Z,18.20
2019-01-14T11:37:49.645Z,17.17
2019-01-14T11:40:23.561Z,9.33
2019-01-14T11:42:51.975Z,15.03
2019-01-14T11:45:20.462Z,15.30
2019-01-14T11:47:48.964Z,16.03
2019-01-14T11:50:18.147Z,10.90
2019-01-14T11:52:47.494Z,11.33
2019-01-14T11:55:16.019Z,12.07
2019-01-14T11:57:44.498Z,12.07
2019-01-14T12:00:21.725Z,15.63
2019-01-14T12:02:50.307Z,14.13
2019-01-14T12:05:18.884Z,13.23
2019-01-14T12:07:47.364Z,10.40
2019-01-14T12:10:16.210Z,8.80
2019-01-14T12:12:44.804Z,7.90
2019-01-14T12:15:16.266Z,8.17
2019-01-14T12:17:44.748Z,10.13
2019-01-14T12:20:15.416Z,10.33
2019-01-14T12:22:43.961Z,11.07
2019-01-14T12:25:12.539Z,9.77
2019-01-14T12:27:41.023Z,13.37
2019-01-14T12:30:15.422Z,14.63
2019-01-14T12:32:43.832Z,10.47
2019-01-14T12:35:12.567Z,15.90
2019-01-14T12:37:40.982Z,10.33
2019-01-14T12:40:12.036Z,15.60
2019-01-14T12:42:40.603Z,6.90
2019-01-14T12:45:12.049Z,4.67
2019-01-14T12:47:40.484Z,12.00
2019-01-14T12:50:14.466Z,8.57
2019-01-14T12:52:42.881Z,11.97
2019-01-14T12:55:15.930Z,9.67
2019-01-14T12:57:44.467Z,12.83
2019-01-14T13:00:19.146Z,13.50
2019-01-14T13:02:47.670Z,15.57
2019-01-14T13:05:17.650Z,15.60
2019-01-14T13:07:46.090Z,11.43
2019-01-14T13:10:15.763Z,13.53
2019-01-14T13:12:44.555Z,12.97
2019-01-14T13:15:27.150Z,8.77
2019-01-14T13:17:55.566Z,9.27
2019-01-14T13:20:24.675Z,10.67
2019-01-14T13:22:53.125Z,15.93
2019-01-14T13:25:21.759Z,14.10
2019-01-14T13:27:50.721Z,12.00
2019-01-14T13:30:24.833Z,6.97
2019-01-14T13:32:53.669Z,8.20
2019-01-14T13:35:22.167Z,14.03
2019-01-14T13:37:51.454Z,13.13
2019-01-14T13:40:20.198Z,12.63
2019-01-14T13:42:48.730Z,6.50
2019-01-14T13:45:22.076Z,10.83
2019-01-14T13:47:50.958Z,14.43
2019-01-14T13:50:21.946Z,11.67
2019-01-14T13:52:50.420Z,15.13
2019-01-14T13:55:20.208Z,12.37
2019-01-14T13:57:48.780Z,7.13
2019-01-14T14:00:22.469Z,9.10
2019-01-14T14:02:50.974Z,6.83
2019-01-14T14:05:19.549Z,6.17
2019-01-14T14:07:48.016Z,9.23
2019-01-14T14:10:22.596Z,9.60
2019-01-14T14:12:51.055Z,15.53
2019-01-14T14:15:20.051Z,10.80
2019-01-14T14:17:48.499Z,12.83
2019-01-14T14:20:19.122Z,14.73
2019-01-14T14:22:47.873Z,11.00
2019-01-14T14:25:16.810Z,14.27
2019-01-14T14:27:45.288Z,14.70
2019-01-14T14:30:19.566Z,11.40
2019-01-14T14:32:48.023Z,12.47
2019-01-14T14:35:16.430Z,8.87
2019-01-14T14:37:44.867Z,6.70
2019-01-14T14:40:13.467Z,10.40
2019-01-14T14:42:41.957Z,15.97
2019-01-14T14:45:12.452Z,11.10
2019-01-14T14:47:40.943Z,8.67
2019-01-14T14:50:12.448Z,8.57
2019-01-14T14:52:41.750Z,5.30
2019-01-14T14:55:10.350Z,6.27
2019-01-14T14:57:38.826Z,6.90
2019-01-14T15:00:12.971Z,6.67
2019-01-14T15:02:41.472Z,4.70
2019-01-14T15:05:11.139Z,8.17
2019-01-14T15:07:39.568Z,12.40
2019-01-14T15:10:10.942Z,6.63
2019-01-14T15:12:39.441Z,6.57
2019-01-14T15:15:10.954Z,4.87
2019-01-14T15:17:39.408Z,5.50
2019-01-14T15:20:13.962Z,8.53
2019-01-14T15:22:42.530Z,8.93
2019-01-14T15:25:11.013Z,7.67
2019-01-14T15:27:39.494Z,8.30
2019-01-14T15:30:13.497Z,8.63
2019-01-14T15:32:41.964Z,15.50
2019-01-14T15:35:10.448Z,10.23
2019-01-14T15:37:38.892Z,7.60
2019-01-14T15:40:10.400Z,4.67
2019-01-14T15:42:38.830Z,8.20
2019-01-14T15:45:10.439Z,8.67
2019-01-14T15:47:38.863Z,8.20
2019-01-14T15:50:09.812Z,11.50
2019-01-14T15:52:38.315Z,9.17
2019-01-14T15:55:12.867Z,12.10
2019-01-14T15:57:41.359Z,6.80
2019-01-14T16:00:15.821Z,7.80
2019-01-14T16:02:44.706Z,8.33
2019-01-14T16:05:13.673Z,10.07
2019-01-14T16:07:42.148Z,9.60
2019-01-14T16:10:19.067Z,14.57
2019-01-14T16:12:47.594Z,12.13
2019-01-14T16:15:16.105Z,10.17
2019-01-14T16:17:44.966Z,11.20
2019-01-14T16:20:15.929Z,9.93
2019-01-14T16:22:44.625Z,15.43
2019-01-14T16:25:13.149Z,10.87
2019-01-14T16:27:41.619Z,14.80
2019-01-14T16:30:13.469Z,8.70
2019-01-14T16:32:42.777Z,14.30
2019-01-14T16:35:11.691Z,16.77
2019-01-14T16:37:40.334Z,15.77
2019-01-14T16:40:09.779Z,14.90
2019-01-14T16:42:38.282Z,14.43
2019-01-14T16:45:15.395Z,15.20
2019-01-14T16:47:43.922Z,12.50
2019-01-14T16:50:14.907Z,7.40
2019-01-14T16:52:43.477Z,9.67
2019-01-14T16:55:13.702Z,9.67
2019-01-14T16:57:42.135Z,13.63
2019-01-14T17:00:20.840Z,19.37
2019-01-14T17:02:49.313Z,13.47
2019-01-14T17:05:18.212Z,5.93
2019-01-14T17:07:46.755Z,14.63
2019-01-14T17:10:16.379Z,10.33
2019-01-14T17:12:47.925Z,9.80
2019-01-14T17:15:16.455Z,13.93
2019-01-14T17:17:47.491Z,9.13
2019-01-14T17:20:19.046Z,7.43
2019-01-14T17:22:47.972Z,8.50
2019-01-14T17:25:16.534Z,7.63
2019-01-14T17:27:45.360Z,11.73
2019-01-14T17:30:16.282Z,10.50
2019-01-14T17:32:44.896Z,8.67
2019-01-14T17:35:14.081Z,9.93
2019-01-14T17:37:43.057Z,9.20
2019-01-14T17:40:17.047Z,12.40
2019-01-14T17:42:45.429Z,7.80
2019-01-14T17:45:14.014Z,8.40
2019-01-14T17:47:42.977Z,10.13
2019-01-14T17:50:16.922Z,11.03
2019-01-14T17:52:45.954Z,15.00
2019-01-14T17:55:14.850Z,10.67
2019-01-14T17:57:43.409Z,8.80
2019-01-14T18:00:20.109Z,8.77
2019-01-14T18:02:48.629Z,18.40
2019-01-14T18:05:21.693Z,5.00
2019-01-14T18:07:49.881Z,12.87
2019-01-14T18:10:19.959Z,14.47
2019-01-14T18:12:48.770Z,7.70
2019-01-14T18:15:17.273Z,10.47
2019-01-14T18:17:45.735Z,10.43
2019-01-14T18:20:16.652Z,9.73
2019-01-14T18:22:45.353Z,10.17
2019-01-14T18:25:15.450Z,8.90
2019-01-14T18:27:44.125Z,6.07
2019-01-14T18:30:15.410Z,11.73
2019-01-14T18:32:43.901Z,8.77
2019-01-14T18:35:12.385Z,9.70
2019-01-14T18:37:40.856Z,9.23
2019-01-14T18:40:11.843Z,21.10
2019-01-14T18:42:40.355Z,16.67
2019-01-14T18:45:12.016Z,10.53
2019-01-14T18:47:40.433Z,14.00
2019-01-14T18:50:12.411Z,9.17
2019-01-14T18:52:41.007Z,20.93
2019-01-14T18:55:09.488Z,13.00
2019-01-14T18:57:38.027Z,14.47
2019-01-14T19:00:12.903Z,13.57
2019-01-14T19:02:41.337Z,14.30
2019-01-14T19:05:10.152Z,12.23
2019-01-14T19:07:38.598Z,12.30
2019-01-14T19:10:09.847Z,12.03
2019-01-14T19:12:38.802Z,14.47
2019-01-14T19:15:10.362Z,15.93
2019-01-14T19:17:38.827Z,14.00
2019-01-14T19:20:12.962Z,8.47
2019-01-14T19:22:41.376Z,8.90
2019-01-14T19:25:09.975Z,14.17
2019-01-14T19:27:38.484Z,10.50
2019-01-14T19:30:09.988Z,16.30
2019-01-14T19:32:38.772Z,9.60
2019-01-14T19:35:07.756Z,12.73
2019-01-14T19:37:36.222Z,10.67
2019-01-14T19:40:10.253Z,10.53
2019-01-14T19:42:38.897Z,9.77
2019-01-14T19:45:09.284Z,10.27
2019-01-14T19:47:37.793Z,9.83
2019-01-14T19:50:12.108Z,17.17
2019-01-14T19:52:40.631Z,15.63
2019-01-14T19:55:09.161Z,11.30
2019-01-14T19:57:37.598Z,10.40
2019-01-14T20:00:18.174Z,18.80
2019-01-14T20:02:46.667Z,7.43
2019-01-14T20:05:15.181Z,12.87
2019-01-14T20:07:43.689Z,17.40
2019-01-14T20:10:15.321Z,15.43
2019-01-14T20:12:43.894Z,11.17
2019-01-14T20:15:15.533Z,11.97
2019-01-14T20:17:44.038Z,10.40
2019-01-14T20:20:12.755Z,13.03
2019-01-14T20:22:41.189Z,11.83
2019-01-14T20:25:11.703Z,11.13
2019-01-14T20:27:41.374Z,14.53
2019-01-14T20:30:19.815Z,10.63
2019-01-14T20:32:49.053Z,14.43
2019-01-14T20:35:17.982Z,16.43
2019-01-14T20:37:46.719Z,12.93
2019-01-14T20:40:16.767Z,14.47
2019-01-14T20:42:45.422Z,16.17
2019-01-14T20:45:16.352Z,18.20
2019-01-14T20:47:44.874Z,19.33
2019-01-14T20:50:18.853Z,10.17
2019-01-14T20:52:47.577Z,10.50
2019-01-14T20:55:16.100Z,15.77
2019-01-14T20:57:45.846Z,12.97
2019-01-14T21:00:23.311Z,14.27
2019-01-14T21:02:52.279Z,15.30
2019-01-14T21:05:22.499Z,20.30
2019-01-14T21:07:50.998Z,16.43
2019-01-14T21:10:19.595Z,12.83
2019-01-14T21:12:48.381Z,16.73
2019-01-14T21:15:16.953Z,11.63
2019-01-14T21:17:45.537Z,9.03
2019-01-14T21:20:17.645Z,13.00
2019-01-14T21:22:46.211Z,13.97
2019-01-14T21:25:14.697Z,13.63
2019-01-14T21:27:43.592Z,19.00
2019-01-14T21:30:18.243Z,17.27
2019-01-14T21:32:46.924Z,19.30
2019-01-14T21:35:15.642Z,16.50
2019-01-14T21:37:44.987Z,14.87
2019-01-14T21:40:14.582Z,9.93
2019-01-14T21:42:43.412Z,28.63
2019-01-14T21:45:13.895Z,11.13
2019-01-14T21:47:42.340Z,13.53
2019-01-14T21:50:24.605Z,18.53
2019-01-14T21:52:54.665Z,13.37
2019-01-14T21:55:23.586Z,10.97
2019-01-14T21:57:52.018Z,14.57
2019-01-14T22:00:22.595Z,16.80
2019-01-14T22:02:51.051Z,18.90
2019-01-14T22:05:19.632Z,20.17
2019-01-14T22:07:48.214Z,18.13
2019-01-14T22:10:19.501Z,11.77
2019-01-14T22:12:48.294Z,11.80
2019-01-14T22:15:16.886Z,13.87
2019-01-14T22:17:45.558Z,13.13
2019-01-14T22:20:22.584Z,9.07
2019-01-14T22:22:51.017Z,16.00
2019-01-14T22:25:19.602Z,22.70
2019-01-14T22:27:48.103Z,17.50
2019-01-14T22:30:22.487Z,8.90
2019-01-14T22:32:51.337Z,15.70
2019-01-14T22:35:20.104Z,11.27
2019-01-14T22:37:48.635Z,15.77
2019-01-14T22:40:17.666Z,23.37
2019-01-14T22:42:46.150Z,11.30
2019-01-14T22:45:14.720Z,17.57
2019-01-14T22:47:43.267Z,13.93
2019-01-14T22:50:17.354Z,15.30
2019-01-14T22:52:46.346Z,23.07
2019-01-14T22:55:15.230Z,15.63
2019-01-14T22:57:43.830Z,15.13
2019-01-14T23:00:33.413Z,19.73
2019-01-14T23:03:01.923Z,21.77
2019-01-14T23:05:30.355Z,17.87
2019-01-14T23:07:59.070Z,12.37
2019-01-14T23:10:27.526Z,19.23
2019-01-14T23:12:55.962Z,13.23
2019-01-14T23:15:24.516Z,23.37
2019-01-14T23:17:53.084Z,12.10
2019-01-14T23:20:21.608Z,15.30
2019-01-14T23:22:50.352Z,15.07
2019-01-14T23:25:19.239Z,14.60
2019-01-14T23:27:47.668Z,13.87
2019-01-14T23:30:16.357Z,21.97
2019-01-14T23:32:44.915Z,16.73
2019-01-14T23:35:13.452Z,17.67
2019-01-14T23:37:41.916Z,11.00
2019-01-14T23:40:10.671Z,18.63
2019-01-14T23:42:39.184Z,19.37
2019-01-14T23:45:11.042Z,21.63
2019-01-14T23:47:39.503Z,18.10
2019-01-14T23:50:09.628Z,15.93
2019-01-14T23:52:38.039Z,19.90
2019-01-14T23:55:07.711Z,17.07
2019-01-14T23:57:36.247Z,17.60
